Terminal Aerodrome Forecast
Issued by NWS Norman, OK

Home | Current Version | Previous Version | Text Only | Print | Product List | Glossary On
Versions: 1 2 3 4 5 6 7 8 9 10 11 12 13 14 15 16 17 18 19 20 21 22 23 24 25 26 27 28
000
FTUS44 KOUN 182337
TAFSPS
TAF
KSPS 182337Z 1900/1924 02005KT 6SM BR OVC007
      TEMPO 1913/1915 4SM -SHRA BR=

USA.gov is the U.S. government's official web portal to all federal, state and local government web resources and services.